This is the latest recevied weather packets stored in our database for station/object N7CEE-2. If no packets are shown the sender has not sent any weather packets the latest 10 day(s).
| Time | Temp. | Humidity | Pressure | Rain* | Wind** | Luminosity | Snow |
|---|---|---|---|---|---|---|---|
| 1777509477 | 28.89° C | 15% | 1013.1 hPa | 0 mm | - | 112 W/m² | - |
| 1777509175 | 28.89° C | 16% | 1013.2 hPa | 0 mm | - | 136 W/m² | - |
| 1777508872 | 29.44° C | 16% | 1013.1 hPa | 0 mm | - | 155 W/m² | - |
| 1777508569 | 28.89° C | 16% | 1013.2 hPa | 0 mm | - | 152 W/m² | - |
| 1777508266 | 28.89° C | 16% | 1013.2 hPa | 0 mm | - | 135 W/m² | - |
| 1777507963 | 28.89° C | 16% | 1013.1 hPa | 0 mm | - | 127 W/m² | - |
| 1777507659 | 28.89° C | 16% | 1013.4 hPa | 0 mm | - | 160 W/m² | - |
| 1777507357 | 28.89° C | 16% | 1013.3 hPa | 0 mm | - | 152 W/m² | - |
| 1777507054 | 29.44° C | 15% | 1013.2 hPa | 0 mm | - | 170 W/m² | - |
| 1777506752 | 29.44° C | 15% | 1013.1 hPa | 0 mm | - | 217 W/m² | - |
| 1777506448 | 29.44° C | 15% | 1013.1 hPa | 0 mm | - | 202 W/m² | - |
| 1777506144 | 29.44° C | 15% | 1013.1 hPa | 0 mm | - | 206 W/m² | - |
| 1777505839 | 29.44° C | 15% | 1013.1 hPa | 0 mm | - | 234 W/m² | - |
| 1777505536 | 29.44° C | 16% | 1013.1 hPa | 0 mm | - | 194 W/m² | - |
| 1777505232 | 29.44° C | 15% | 1013.2 hPa | 0 mm | - | 363 W/m² | - |
| 1777504929 | 29.44° C | 16% | 1013.3 hPa | 0 mm | - | 380 W/m² | - |
| 1777504627 | 30° C | 15% | 1013.2 hPa | 0 mm | - | 272 W/m² | - |
| 1777504323 | 30° C | 15% | 1013.2 hPa | 0 mm | - | 298 W/m² | - |
| 1777504017 | 30° C | 16% | 1013.1 hPa | 0 mm | - | 338 W/m² | - |
| 1777503715 | 30.56° C | 15% | 1013.3 hPa | 0 mm | - | 306 W/m² | - |
| 1777503412 | 29.44° C | 15% | 1013.4 hPa | 0 mm | - | 582 W/m² | - |
| 1777503107 | 30° C | 15% | 1013.6 hPa | 0 mm | - | 473 W/m² | - |
| 1777502805 | 30° C | 14% | 1013.6 hPa | 0 mm | - | 374 W/m² | - |
| 1777502502 | 30.56° C | 14% | 1013.6 hPa | 0 mm | - | 379 W/m² | - |
| 1777502199 | 30° C | 14% | 1013.8 hPa | 0 mm | - | 678 W/m² | - |
* Rain latest hour (hover to see other rain measurements)
** Current wind speed in m/s (hover to see current wind gust speed)